Time;durP1;ratioP1;P1;durP2;ratioP2;P2;SDS_P1;SDS_P2;PMS_P1;PMS_P2;Temp;Humidity;BMP_temperature;BMP_pressure;BME280_temperature;BME280_humidity;BME280_pressure;Samples;Min_cycle;Max_cycle;Signal;HPM_P1;HPM_P2
2023/03/31 00:01:03;;;;;;;23.13;13.93;;;;;;;13.22;86.95;100995.31;4976345;28;20057;-72
2023/03/31 00:03:32;;;;;;;25.15;13.07;;;;;;;13.31;85.17;100999.91;4976356;28;20046;-72
2023/03/31 00:06:01;;;;;;;22.67;12.98;;;;;;;13.39;85.63;100998.47;4975860;28;20043;-72
2023/03/31 00:08:34;;;;;;;26.15;13.38;;;;;;;13.46;85.38;100997.31;4976117;28;20046;-72
2023/03/31 00:11:06;;;;;;;25.08;13.07;;;;;;;13.38;85.15;100990.50;4975997;28;20051;-72
2023/03/31 00:13:35;;;;;;;22.48;12.70;;;;;;;13.36;85.20;100990.81;4975445;28;20055;-72
2023/03/31 00:16:05;;;;;;;18.88;11.88;;;;;;;13.23;85.74;100978.53;4975169;28;20066;-72
2023/03/31 00:18:35;;;;;;;21.95;12.60;;;;;;;13.26;85.86;100974.41;4975130;28;20046;-72
2023/03/31 00:21:32;;;;;;;28.55;14.20;;;;;;;13.31;85.37;100971.59;4975952;28;20386;-72
2023/03/31 00:24:03;;;;;;;26.67;13.40;;;;;;;13.33;85.28;100969.38;4975578;28;20497;-72
2023/03/31 00:26:32;;;;;;;26.33;13.57;;;;;;;13.39;84.96;100968.22;4975092;28;20137;-72
2023/03/31 00:29:01;;;;;;;25.17;13.15;;;;;;;13.35;85.11;100963.59;4958055;28;20059;-72
2023/03/31 00:31:29;;;;;;;24.85;12.95;;;;;;;13.30;85.43;100959.78;4958398;28;20054;-72
2023/03/31 00:33:57;;;;;;;23.50;13.15;;;;;;;13.19;87.16;100958.22;4975855;28;20047;-72
2023/03/31 00:36:27;;;;;;;25.00;13.20;;;;;;;13.13;86.06;100953.88;4973784;28;20051;-72
2023/03/31 00:39:01;;;;;;;20.60;12.52;;;;;;;13.11;86.76;100954.16;4975160;28;20050;-72
2023/03/31 00:41:29;;;;;;;26.63;13.52;;;;;;;13.25;85.63;100948.84;4975607;28;20051;-72
2023/03/31 00:44:05;;;;;;;26.75;13.88;;;;;;;13.00;87.50;100947.94;4975608;28;20406;-72
2023/03/31 00:46:40;;;;;;;19.48;12.00;;;;;;;12.95;87.73;100944.44;4974445;28;20054;-72
2023/03/31 00:49:16;;;;;;;23.20;14.05;;;;;;;12.97;87.85;100936.72;4975343;28;20058;-72
2023/03/31 00:51:45;;;;;;;23.90;13.57;;;;;;;12.98;87.06;100938.34;4958183;28;20093;-72
2023/03/31 00:54:14;;;;;;;24.38;14.02;;;;;;;12.77;88.39;100924.81;4975369;28;20057;-72
2023/03/31 00:56:47;;;;;;;24.00;13.52;;;;;;;12.73;89.51;100931.97;4956935;28;20065;-72
2023/03/31 00:59:15;;;;;;;23.77;14.50;;;;;;;12.68;89.63;100932.00;4974235;28;20066;-72
2023/03/31 01:01:46;;;;;;;27.38;14.27;;;;;;;12.83;88.78;100931.06;4957539;28;20055;-72
2023/03/31 01:04:15;;;;;;;26.58;13.07;;;;;;;12.74;89.46;100926.19;4941669;28;20059;-72
2023/03/31 01:07:01;;;;;;;25.75;14.10;;;;;;;12.59;90.52;100924.38;4973789;28;20379;-72
2023/03/31 01:09:33;;;;;;;28.42;14.95;;;;;;;12.67;90.44;100931.19;4973745;28;20057;-72
2023/03/31 01:12:06;;;;;;;32.50;14.43;;;;;;;12.68;90.36;100913.59;4975239;28;20062;-72
2023/03/31 01:14:34;;;;;;;24.67;13.38;;;;;;;12.52;91.73;100904.66;4973773;28;20058;-72
2023/03/31 01:17:03;;;;;;;31.85;16.15;;;;;;;12.60;91.41;100903.22;4974687;28;20050;-72
2023/03/31 01:20:11;;;;;;;30.30;14.27;;;;;;;12.62;91.39;100904.56;4974854;28;20537;-72
2023/03/31 01:22:48;;;;;;;28.27;15.48;;;;;;;12.57;92.50;100892.81;4957648;28;20502;-72
2023/03/31 01:25:37;;;;;;;26.75;14.75;;;;;;;12.42;92.97;100893.75;4973367;28;20134;-72
2023/03/31 01:28:33;;;;;;;28.90;14.20;;;;;;;12.31;93.56;100891.06;4955592;29;20058;-72
2023/03/31 01:31:06;;;;;;;28.23;14.57;;;;;;;12.35;93.86;100888.56;4961079;28;20042;-72
2023/03/31 01:33:56;;;;;;;26.77;15.43;;;;;;;12.48;93.92;100893.41;4973976;28;20055;-72
2023/03/31 01:36:51;;;;;;;26.85;13.63;;;;;;;12.57;92.87;100901.06;4973123;28;20054;-72
2023/03/31 01:39:44;;;;;;;30.95;14.73;;;;;;;12.58;92.75;100891.72;4973977;28;20058;-72
2023/03/31 01:42:21;;;;;;;27.98;14.75;;;;;;;12.62;92.01;100899.09;4973805;28;20055;-72
2023/03/31 01:45:08;;;;;;;25.40;14.70;;;;;;;12.48;92.90;100901.66;4973885;28;20077;-72
2023/03/31 01:47:58;;;;;;;26.73;14.70;;;;;;;12.66;93.46;100898.53;4973410;28;20054;-72
2023/03/31 01:50:34;;;;;;;24.20;14.15;;;;;;;12.61;91.90;100891.94;4906794;28;20070;-72
2023/03/31 01:53:13;;;;;;;26.35;14.77;;;;;;;12.49;92.87;100888.75;4957284;28;20039;-72
2023/03/31 01:55:50;;;;;;;27.58;14.18;;;;;;;12.47;92.64;100877.25;4956746;28;20505;-73
2023/03/31 01:58:36;;;;;;;28.50;14.43;;;;;;;12.55;92.57;100884.03;4956695;28;20053;-72
2023/03/31 02:01:25;;;;;;;24.55;14.75;;;;;;;12.43;93.51;100868.78;4974043;28;20050;-72
2023/03/31 02:03:57;;;;;;;31.45;15.95;;;;;;;12.34;94.52;100854.84;4974173;28;20409;-72
2023/03/31 02:06:33;;;;;;;29.65;14.80;;;;;;;12.27;94.44;100854.31;4956512;28;20484;-72
2023/03/31 02:09:06;;;;;;;28.42;15.90;;;;;;;12.36;94.20;100857.25;4973977;28;20051;-72
2023/03/31 02:11:37;;;;;;;30.65;15.43;;;;;;;12.43;94.29;100851.47;4955398;28;20054;-72
2023/03/31 02:14:11;;;;;;;26.00;15.27;;;;;;;12.40;93.86;100855.59;4953262;28;20483;-72
2023/03/31 02:16:46;;;;;;;28.25;16.70;;;;;;;12.34;94.91;100849.34;4964512;28;20062;-72
2023/03/31 02:19:17;;;;;;;26.23;14.65;;;;;;;12.40;94.00;100855.59;4963599;28;20039;-72
2023/03/31 02:21:48;;;;;;;27.95;15.27;;;;;;;12.27;95.16;100843.34;4954369;28;20714;-72
2023/03/31 02:24:20;;;;;;;30.52;15.82;;;;;;;12.25;95.30;100837.31;4954474;29;20050;-72
2023/03/31 02:27:01;;;;;;;27.17;16.02;;;;;;;12.08;96.37;100838.50;4965661;28;20046;-72
2023/03/31 02:29:29;;;;;;;30.42;16.42;;;;;;;12.12;96.72;100841.50;4973545;28;20062;-72
2023/03/31 02:32:13;;;;;;;25.50;16.15;;;;;;;12.08;96.87;100848.69;4956413;28;20051;-72
2023/03/31 02:34:41;;;;;;;32.53;15.57;;;;;;;12.03;97.13;100846.75;4973632;28;20474;-72
2023/03/31 02:37:09;;;;;;;28.15;17.02;;;;;;;12.12;97.28;100847.00;4973255;28;20054;-72
2023/03/31 02:39:40;;;;;;;30.92;16.45;;;;;;;12.16;96.77;100847.25;4956321;28;20379;-72
2023/03/31 02:42:09;;;;;;;31.92;16.85;;;;;;;12.16;96.76;100841.75;4955788;28;20062;-72
2023/03/31 02:44:38;;;;;;;25.88;14.75;;;;;;;12.15;97.62;100840.13;4973192;28;20401;-72
2023/03/31 02:47:10;;;;;;;30.83;15.43;;;;;;;12.02;97.65;100839.63;4973093;28;20047;-72
2023/03/31 02:49:43;;;;;;;31.13;16.27;;;;;;;12.06;98.02;100840.72;4955141;28;20046;-72
2023/03/31 02:52:37;;;;;;;32.83;16.77;;;;;;;11.94;98.75;100838.28;4973555;28;20047;-72
2023/03/31 02:55:05;;;;;;;27.85;17.02;;;;;;;12.07;97.86;100838.78;4939788;28;20047;-72
2023/03/31 02:57:38;;;;;;;27.27;15.10;;;;;;;12.12;97.37;100841.50;4955912;28;20039;-72
2023/03/31 03:00:23;;;;;;;29.02;16.10;;;;;;;11.90;97.96;100839.16;4956074;28;20050;-72
2023/03/31 03:02:59;;;;;;;38.72;16.88;;;;;;;11.89;98.63;100846.56;4956165;28;20043;-72
2023/03/31 03:05:44;;;;;;;30.60;16.92;;;;;;;11.90;98.31;100844.63;4956015;28;20039;-72
2023/03/31 03:08:37;;;;;;;29.92;17.42;;;;;;;11.92;99.62;100846.00;4936684;29;20047;-72
2023/03/31 03:11:31;;;;;;;36.03;17.63;;;;;;;11.95;98.54;100837.22;4953806;29;20039;-72
2023/03/31 03:14:27;;;;;;;31.17;17.80;;;;;;;11.90;99.01;100829.00;4936774;29;20395;-72
2023/03/31 03:17:18;;;;;;;29.15;16.58;;;;;;;12.09;97.78;100829.19;4964011;28;20394;-72
2023/03/31 03:19:51;;;;;;;35.25;17.15;;;;;;;12.06;97.81;100827.00;4973303;28;20047;-72
2023/03/31 03:22:19;;;;;;;32.17;16.08;;;;;;;12.12;97.56;100818.75;4972972;28;20051;-72
2023/03/31 03:24:47;;;;;;;33.63;15.68;;;;;;;12.22;96.58;100825.00;4973065;28;20043;-72
2023/03/31 03:27:16;;;;;;;27.20;15.48;;;;;;;12.28;96.20;100816.72;4972735;28;20039;-72
2023/03/31 03:29:44;;;;;;;33.20;16.30;;;;;;;12.23;97.04;100803.88;4955697;28;20054;-72
2023/03/31 03:32:11;;;;;;;30.13;16.02;;;;;;;12.12;98.02;100796.81;4955980;28;20058;-72
2023/03/31 03:34:39;;;;;;;28.63;16.77;;;;;;;12.05;98.77;100810.84;4972698;28;20046;-72
2023/03/31 03:37:07;;;;;;;29.35;17.90;;;;;;;12.12;97.91;100813.28;4972689;28;20050;-72
2023/03/31 03:39:35;;;;;;;31.08;17.25;;;;;;;12.12;97.66;100814.06;4973009;28;20504;-72
2023/03/31 03:42:03;;;;;;;30.33;16.38;;;;;;;12.22;96.95;100808.53;4972824;28;20405;-72
2023/03/31 03:44:31;;;;;;;31.15;16.80;;;;;;;12.29;97.30;100796.41;4972798;28;20490;-72
2023/03/31 03:46:59;;;;;;;28.95;16.08;;;;;;;12.38;96.23;100797.44;4955220;28;20062;-72
2023/03/31 03:49:27;;;;;;;26.50;15.52;;;;;;;12.47;95.59;100792.16;4972386;28;20504;-72
2023/03/31 03:51:55;;;;;;;35.22;16.38;;;;;;;12.54;95.36;100791.81;4955725;28;20055;-72
2023/03/31 03:54:23;;;;;;;29.17;16.10;;;;;;;12.50;95.45;100791.56;4972566;28;20058;-72
2023/03/31 03:56:50;;;;;;;24.42;14.02;;;;;;;12.50;95.19;100783.34;4972384;28;20054;-72
2023/03/31 03:59:18;;;;;;;32.75;16.40;;;;;;;12.50;95.47;100781.41;4973251;28;20047;-72
2023/03/31 04:01:46;;;;;;;23.58;14.18;;;;;;;12.66;94.10;100769.47;4976240;28;20042;-72
2023/03/31 04:04:14;;;;;;;24.95;14.50;;;;;;;12.57;93.70;100777.53;4976225;28;20094;-72
2023/03/31 04:06:42;;;;;;;28.83;14.90;;;;;;;12.57;94.05;100786.56;4976110;28;20054;-72
2023/03/31 04:09:10;;;;;;;31.20;16.42;;;;;;;12.67;93.04;100791.16;4976107;28;20047;-72
2023/03/31 04:11:38;;;;;;;31.90;15.10;;;;;;;12.77;91.40;100787.50;4958866;28;20054;-72
2023/03/31 04:14:06;;;;;;;26.40;14.07;;;;;;;12.53;94.19;100796.50;4976091;28;20117;-72
2023/03/31 04:16:34;;;;;;;27.05;13.88;;;;;;;12.66;92.00;100780.47;4975819;28;20051;-72
2023/03/31 04:19:03;;;;;;;29.05;14.13;;;;;;;12.47;93.49;100787.47;4958797;28;20066;-72
2023/03/31 04:21:33;;;;;;;26.88;15.68;;;;;;;12.52;92.97;100789.38;4975906;28;20374;-72
2023/03/31 04:24:03;;;;;;;27.65;13.25;;;;;;;12.70;91.65;100787.03;4975763;28;20042;-72
2023/03/31 04:26:42;;;;;;;27.20;15.00;;;;;;;12.77;91.39;100779.25;4975606;28;20050;-72
2023/03/31 04:29:12;;;;;;;30.83;14.40;;;;;;;12.70;92.04;100784.28;4975799;28;20151;-72
2023/03/31 04:31:43;;;;;;;27.38;15.73;;;;;;;12.74;91.67;100771.59;4974976;28;20051;-72
2023/03/31 04:34:13;;;;;;;26.40;14.77;;;;;;;12.61;92.69;100782.13;4943312;28;20112;-72
2023/03/31 04:36:46;;;;;;;28.73;15.35;;;;;;;12.50;93.69;100777.84;4975093;28;20038;-72
2023/03/31 04:39:29;;;;;;;29.80;16.38;;;;;;;12.69;92.96;100766.97;4975526;28;20039;-73
2023/03/31 04:41:59;;;;;;;33.78;17.25;;;;;;;12.53;93.91;100774.53;4974904;28;20051;-73
2023/03/31 04:44:28;;;;;;;30.15;15.27;;;;;;;12.50;93.91;100753.97;4974227;28;20055;-73
2023/03/31 04:46:57;;;;;;;28.75;16.13;;;;;;;12.60;94.29;100753.06;4970398;28;20062;-73
2023/03/31 04:49:25;;;;;;;27.98;16.42;;;;;;;12.60;93.61;100758.53;4956171;29;20044;-73
2023/03/31 04:51:55;;;;;;;31.13;16.17;;;;;;;12.67;93.85;100755.47;4956208;29;20060;-73
2023/03/31 04:54:22;;;;;;;31.90;16.05;;;;;;;12.75;92.56;100764.97;4940315;28;20039;-73
2023/03/31 04:56:51;;;;;;;30.70;15.57;;;;;;;12.73;93.13;100773.53;4976834;28;20394;-73
2023/03/31 04:59:19;;;;;;;30.58;16.92;;;;;;;12.64;93.11;100764.25;4975063;28;20043;-72
2023/03/31 05:01:47;;;;;;;33.15;17.92;;;;;;;12.70;92.66;100763.09;4974682;28;20058;-73
2023/03/31 05:04:15;;;;;;;32.33;17.17;;;;;;;12.76;93.75;100785.84;4972473;28;20039;-75
2023/03/31 05:06:43;;;;;;;30.35;16.70;;;;;;;12.44;95.27;100781.75;4974458;28;20051;-75
2023/03/31 05:09:11;;;;;;;31.63;17.73;;;;;;;12.40;94.79;100770.53;4973759;28;20073;-75
2023/03/31 05:11:39;;;;;;;31.83;17.35;;;;;;;12.51;95.11;100765.75;4973288;28;20050;-74
2023/03/31 05:14:07;;;;;;;36.80;16.98;;;;;;;12.53;94.83;100752.56;4974626;28;20047;-74
2023/03/31 05:16:35;;;;;;;34.40;16.77;;;;;;;12.50;94.59;100753.13;4974404;28;20059;-74
2023/03/31 05:19:03;;;;;;;28.88;16.42;;;;;;;12.46;95.95;100752.91;4974788;28;20039;-75
2023/03/31 05:21:31;;;;;;;32.83;17.98;;;;;;;12.42;95.71;100751.03;4957691;28;20065;-75
2023/03/31 05:23:59;;;;;;;37.83;18.23;;;;;;;12.44;95.46;100749.63;4974200;28;20045;-74
2023/03/31 05:26:27;;;;;;;31.60;16.42;;;;;;;12.46;95.82;100746.59;4968541;28;20047;-75
2023/03/31 05:28:55;;;;;;;27.17;17.27;;;;;;;12.49;95.43;100737.78;4954383;29;20058;-74
2023/03/31 05:31:23;;;;;;;31.00;16.05;;;;;;;12.51;95.23;100727.31;4967708;28;20055;-75
2023/03/31 05:33:51;;;;;;;26.60;16.13;;;;;;;12.53;94.86;100725.13;4973908;28;20077;-73
2023/03/31 05:36:22;;;;;;;29.75;16.52;;;;;;;12.58;94.52;100727.81;4971590;28;20058;-75
2023/03/31 05:38:51;;;;;;;26.25;15.38;;;;;;;12.50;94.64;100722.94;4973986;28;20047;-75
2023/03/31 05:41:19;;;;;;;25.55;14.57;;;;;;;12.58;94.35;100736.06;4974285;28;20486;-73
2023/03/31 05:43:47;;;;;;;25.23;14.57;;;;;;;12.60;94.49;100736.56;4973620;28;20058;-74
2023/03/31 05:46:17;;;;;;;33.22;16.25;;;;;;;12.86;93.54;100733.56;4956182;28;20051;-87
2023/03/31 05:59:42;;;;;;;27.02;14.90;;;;;;;13.80;84.70;100733.22;4825802;29;20402;-86
2023/03/31 06:04:51;;;;;;;23.90;14.35;;;;;;;13.62;85.91;100732.09;4714735;30;20065;-87
2023/03/31 11:40:24;;;;;;;27.13;14.65;;;;;;;17.35;67.64;100331.63;4954132;28;20059;-89
2023/03/31 12:33:57;;;;;;;15.27;8.27;;;;;;;18.54;59.58;100205.16;4890953;29;20056;-90
2023/03/31 17:32:10;;;;;;;22.80;11.23;;;;;;;16.52;66.07;99786.41;4966836;28;20051;-88
2023/03/31 18:49:36;;;;;;;25.60;14.52;;;;;;;15.23;74.39;99789.41;4885946;29;20411;-90
2023/03/31 18:54:21;;;;;;;27.45;14.77;;;;;;;15.34;73.21;99778.00;4910108;29;20095;-89
2023/03/31 19:03:56;;;;;;;25.60;13.80;;;;;;;15.17;74.49;99772.22;4907588;29;20407;-90
2023/03/31 19:08:19;;;;;;;26.27;14.23;;;;;;;15.10;74.02;99773.91;4906187;29;20059;-89
2023/03/31 19:12:49;;;;;;;27.63;14.23;;;;;;;15.05;74.55;99770.16;4894368;29;20044;-90
2023/03/31 19:22:17;;;;;;;26.92;15.75;;;;;;;15.08;74.77;99774.22;4891281;29;20491;-90
2023/03/31 19:26:57;;;;;;;34.17;14.80;;;;;;;15.04;75.21;99760.28;4918016;29;20520;-91
2023/03/31 19:36:17;;;;;;;29.90;16.13;;;;;;;14.75;76.23;99750.84;4917969;29;20060;-89
2023/03/31 19:40:54;;;;;;;34.25;17.35;;;;;;;15.04;75.03;99763.06;4878910;29;20133;-89
2023/03/31 19:45:30;;;;;;;30.60;16.88;;;;;;;14.90;74.87;99757.75;4872019;29;20057;-89
2023/03/31 19:49:54;;;;;;;33.88;15.90;;;;;;;14.75;75.54;99748.06;4853537;29;20084;-89
2023/03/31 19:58:58;;;;;;;24.92;12.85;;;;;;;14.59;76.36;99757.97;4782449;29;20062;-90
2023/03/31 20:03:54;;;;;;;22.65;13.63;;;;;;;14.56;76.55;99755.88;4851194;29;20057;-91
2023/03/31 20:08:41;;;;;;;28.52;13.18;;;;;;;14.50;76.46;99730.44;4763559;30;20048;-91
2023/03/31 20:18:08;;;;;;;23.30;12.30;;;;;;;14.40;77.45;99728.84;4617564;30;20059;-90
2023/03/31 20:27:52;;;;;;;25.15;13.10;;;;;;;14.16;77.77;99721.13;4608632;31;20067;-91
2023/03/31 20:32:44;;;;;;;21.58;12.27;;;;;;;14.22;77.69;99728.06;4639232;30;20051;-91
2023/03/31 20:37:33;;;;;;;25.98;13.15;;;;;;;14.30;77.10;99723.69;4630303;30;20147;-91
2023/03/31 20:40:17;;;;;;;26.52;14.30;;;;;;;13.94;78.89;99720.97;4684090;30;20045;-75
2023/03/31 20:42:45;;;;;;;26.23;15.15;;;;;;;13.61;80.12;99715.94;4731398;29;20642;-75
2023/03/31 20:45:15;;;;;;;26.20;15.10;;;;;;;13.36;81.31;99729.31;4825953;29;20060;-76
2023/03/31 20:47:45;;;;;;;31.58;15.90;;;;;;;12.95;84.03;99727.72;4865880;29;20053;-75
2023/03/31 20:50:34;;;;;;;27.33;15.73;;;;;;;12.74;85.60;99723.59;4904910;29;20512;-74
2023/03/31 20:53:11;;;;;;;32.25;16.25;;;;;;;12.51;87.27;99711.81;4861871;29;20045;-76
2023/03/31 20:55:39;;;;;;;33.67;16.45;;;;;;;12.47;88.66;99727.31;4877013;29;20057;-76
2023/03/31 20:58:07;;;;;;;28.00;16.00;;;;;;;12.39;88.65;99714.34;4898324;29;20538;-75
2023/03/31 21:00:35;;;;;;;28.33;16.55;;;;;;;12.22;90.21;99724.88;4959722;28;20146;-74
2023/03/31 21:03:03;;;;;;;30.67;16.58;;;;;;;12.16;91.00;99717.91;4974599;28;20397;-75
2023/03/31 21:05:43;;;;;;;31.65;16.55;;;;;;;12.20;91.43;99734.56;4967459;28;20051;-75
2023/03/31 21:08:11;;;;;;;29.98;16.33;;;;;;;12.43;89.49;99718.09;4957909;28;20051;-75
2023/03/31 21:10:44;;;;;;;27.38;16.48;;;;;;;12.58;89.02;99723.19;4954045;28;20051;-76
2023/03/31 21:13:15;;;;;;;31.77;16.95;;;;;;;12.63;88.19;99733.22;4967893;28;20047;-76
2023/03/31 21:15:49;;;;;;;29.58;16.95;;;;;;;12.68;86.81;99730.34;4968041;28;20050;-75
2023/03/31 21:18:17;;;;;;;26.02;15.55;;;;;;;12.65;86.89;99728.22;4956051;28;20422;-75
2023/03/31 21:21:02;;;;;;;31.05;16.88;;;;;;;12.79;87.13;99727.31;4956054;28;20047;-75
2023/03/31 21:23:39;;;;;;;28.85;16.00;;;;;;;12.72;86.73;99711.31;4953670;28;20055;-75
2023/03/31 21:26:10;;;;;;;28.00;15.95;;;;;;;12.50;88.43;99710.22;4966764;28;20051;-76
2023/03/31 21:28:38;;;;;;;31.55;17.70;;;;;;;12.47;87.93;99706.16;4949798;29;20047;-76
2023/03/31 21:31:11;;;;;;;28.42;16.38;;;;;;;12.33;88.69;99705.44;4954204;28;20047;-76
2023/03/31 21:33:42;;;;;;;28.42;16.08;;;;;;;12.50;88.67;99696.50;4973948;28;20051;-75
2023/03/31 21:36:16;;;;;;;31.25;16.70;;;;;;;12.58;88.18;99683.94;4982328;28;20042;-75
2023/03/31 21:38:44;;;;;;;34.50;18.52;;;;;;;12.42;88.22;99687.06;4993190;28;20055;-76
2023/03/31 21:41:21;;;;;;;35.45;17.90;;;;;;;12.41;88.10;99685.47;4992402;28;20072;-76
2023/03/31 21:43:50;;;;;;;31.65;17.20;;;;;;;12.32;88.53;99677.19;4993583;28;20054;-75
2023/03/31 21:46:24;;;;;;;34.65;15.85;;;;;;;12.26;88.83;99670.22;4993376;28;20489;-75
2023/03/31 21:48:53;;;;;;;31.98;16.50;;;;;;;12.28;89.29;99670.72;4993673;28;20053;-75
2023/03/31 21:51:30;;;;;;;26.95;16.05;;;;;;;12.21;88.76;99653.88;4992850;28;20054;-75
2023/03/31 21:54:03;;;;;;;30.83;16.65;;;;;;;12.22;88.73;99661.81;4993084;28;20046;-75
2023/03/31 21:56:31;;;;;;;30.70;17.15;;;;;;;12.09;89.32;99649.78;4993847;28;20047;-76
2023/03/31 21:59:01;;;;;;;32.47;17.73;;;;;;;11.96;90.24;99647.88;4992759;28;20496;-76
2023/03/31 22:01:30;;;;;;;33.35;17.63;;;;;;;12.01;90.16;99644.19;4993790;28;20054;-75
2023/03/31 22:03:58;;;;;;;38.67;18.55;;;;;;;12.08;89.95;99650.13;4992776;28;20054;-75
2023/03/31 22:06:26;;;;;;;33.55;18.63;;;;;;;11.96;90.92;99645.97;4976144;28;20057;-75
2023/03/31 22:08:54;;;;;;;37.17;18.60;;;;;;;11.90;91.44;99654.63;4982945;28;20054;-75
2023/03/31 22:11:22;;;;;;;34.15;18.50;;;;;;;11.85;91.44;99646.53;4973333;28;20062;-75
2023/03/31 22:13:50;;;;;;;40.78;19.55;;;;;;;11.79;91.64;99643.09;4974274;28;20050;-76
2023/03/31 22:16:20;;;;;;;31.67;18.70;;;;;;;11.71;92.52;99647.41;4973521;28;20493;-75
2023/03/31 22:18:49;;;;;;;36.88;18.20;;;;;;;11.56;93.45;99646.66;4973882;28;20055;-75
2023/03/31 22:21:23;;;;;;;40.17;18.85;;;;;;;11.40;94.23;99645.38;4973287;28;20058;-75
2023/03/31 22:24:04;;;;;;;39.42;19.25;;;;;;;11.40;94.64;99639.88;4973383;28;20066;-74
2023/03/31 22:26:40;;;;;;;33.90;19.15;;;;;;;11.32;95.16;99646.91;4955196;28;20054;-75
2023/03/31 22:29:13;;;;;;;29.42;17.10;;;;;;;11.28;95.77;99646.72;4956422;28;20410;-75
2023/03/31 22:31:41;;;;;;;34.30;18.50;;;;;;;11.25;95.91;99647.31;4973299;28;20070;-76
2023/03/31 22:34:09;;;;;;;28.27;17.80;;;;;;;11.19;96.08;99653.22;4973832;28;20047;-76
2023/03/31 22:36:37;;;;;;;34.10;19.73;;;;;;;11.17;97.09;99645.31;4973205;28;20047;-76
2023/03/31 22:39:04;;;;;;;34.85;18.50;;;;;;;11.10;96.83;99653.13;4972836;28;20057;-75
2023/03/31 22:41:32;;;;;;;34.10;19.63;;;;;;;11.06;96.62;99654.84;4972776;28;20046;-75
2023/03/31 22:44:00;;;;;;;32.85;18.17;;;;;;;11.04;96.56;99660.63;4972939;28;20054;-76
2023/03/31 22:46:28;;;;;;;35.88;18.70;;;;;;;11.02;96.93;99658.22;4973734;28;20517;-75
2023/03/31 22:48:56;;;;;;;30.67;17.65;;;;;;;11.08;96.28;99658.91;4973116;28;20057;-76
2023/03/31 22:51:24;;;;;;;33.13;17.58;;;;;;;11.01;96.75;99667.53;4955655;28;20055;-75
2023/03/31 22:53:53;;;;;;;31.05;16.83;;;;;;;10.95;97.05;99657.81;4972905;28;20047;-75
2023/03/31 22:56:21;;;;;;;31.10;18.20;;;;;;;11.06;96.43;99663.06;4972859;28;20066;-75
2023/03/31 22:58:50;;;;;;;28.98;17.00;;;;;;;11.05;96.53;99661.47;4973100;28;20051;-75
2023/03/31 23:01:20;;;;;;;29.23;17.60;;;;;;;10.99;96.31;99661.56;4974434;28;20043;-75
2023/03/31 23:03:48;;;;;;;38.78;17.42;;;;;;;10.78;96.92;99654.88;4991952;28;20081;-75
2023/03/31 23:06:17;;;;;;;31.08;17.95;;;;;;;10.74;97.39;99660.97;4991990;28;20058;-75
2023/03/31 23:08:47;;;;;;;29.40;16.75;;;;;;;10.83;97.48;99652.03;4984588;28;20520;-75
2023/03/31 23:11:17;;;;;;;29.40;17.30;;;;;;;10.86;97.47;99651.44;4973180;28;20410;-75
2023/03/31 23:13:45;;;;;;;30.20;17.85;;;;;;;10.77;97.66;99643.13;4972916;28;20467;-76
2023/03/31 23:16:19;;;;;;;34.45;18.20;;;;;;;10.83;97.58;99638.34;4954189;29;20047;-75
2023/03/31 23:18:48;;;;;;;;;;;;;;;10.81;97.60;99648.78;4969452;28;20055;-76
2023/03/31 23:21:26;;;;;;;30.67;17.85;;;;;;;10.78;97.80;99642.00;4972131;28;19926;-75
2023/03/31 23:23:57;;;;;;;32.17;17.88;;;;;;;10.85;97.18;99636.13;4972931;28;20058;-76
2023/03/31 23:26:26;;;;;;;27.20;16.83;;;;;;;10.87;97.44;99640.16;4972714;28;20051;-75
2023/03/31 23:28:55;;;;;;;34.38;17.40;;;;;;;10.84;97.81;99637.22;4972379;28;20485;-75
2023/03/31 23:31:26;;;;;;;33.03;18.30;;;;;;;10.93;97.01;99631.84;4971852;28;20047;-75
2023/03/31 23:33:55;;;;;;;33.78;18.52;;;;;;;10.96;97.11;99637.50;4972983;28;20055;-75
2023/03/31 23:36:24;;;;;;;31.90;17.77;;;;;;;10.88;97.02;99627.28;4972571;28;20481;-75
2023/03/31 23:38:54;;;;;;;29.88;17.63;;;;;;;10.88;97.07;99628.13;4972096;28;20486;-75
2023/03/31 23:41:24;;;;;;;36.25;18.73;;;;;;;10.96;96.36;99618.34;4972274;28;20370;-75
2023/03/31 23:43:54;;;;;;;36.25;19.42;;;;;;;10.88;97.24;99619.09;4972450;28;20498;-75
2023/03/31 23:46:24;;;;;;;33.78;18.95;;;;;;;10.87;97.22;99625.69;4972308;28;20059;-75
2023/03/31 23:48:52;;;;;;;37.40;19.85;;;;;;;10.88;96.90;99617.16;4972907;28;20409;-75
2023/03/31 23:51:20;;;;;;;31.75;18.58;;;;;;;10.94;96.53;99617.84;4972013;28;20062;-76
2023/03/31 23:53:49;;;;;;;35.05;19.75;;;;;;;10.96;96.16;99604.66;4972519;28;20050;-75
2023/03/31 23:56:16;;;;;;;33.72;18.98;;;;;;;10.98;96.42;99604.38;4970975;28;20062;-75
2023/03/31 23:58:44;;;;;;;34.47;20.33;;;;;;;10.97;96.60;99605.50;4972140;28;20051;-75
